Time;durP1;ratioP1;P1;durP2;ratioP2;P2;SDS_P1;SDS_P2;PMS_P1;PMS_P2;Temp;Humidity;BMP_temperature;BMP_pressure;BME280_temperature;BME280_humidity;BME280_pressure;Samples;Min_cycle;Max_cycle;Signal;HPM_P1;HPM_P2
2022/05/18 00:02:09;;;;;;;19.65;11.50;;;;;;;;;;5076228;28;20195;-67
2022/05/18 00:04:35;;;;;;;16.20;10.30;;;;;;;;;;5069796;28;20213;-67
2022/05/18 00:07:01;;;;;;;19.25;10.40;;;;;;;;;;5095557;28;20557;-69
2022/05/18 00:09:27;;;;;;;19.88;10.68;;;;;;;;;;5096806;28;20189;-69
2022/05/18 00:11:53;;;;;;;20.15;11.57;;;;;;;;;;5079048;28;20192;-69
2022/05/18 00:14:19;;;;;;;18.13;10.88;;;;;;;;;;5099685;28;20558;-69
2022/05/18 00:16:45;;;;;;;19.15;10.88;;;;;;;;;;5100951;28;20197;-68
2022/05/18 00:19:11;;;;;;;19.40;11.20;;;;;;;;;;5097061;28;20193;-68
2022/05/18 00:21:37;;;;;;;17.17;11.20;;;;;;;;;;5088044;28;20653;-68
2022/05/18 00:24:04;;;;;;;20.13;10.93;;;;;;;;;;5086954;28;20597;-68
2022/05/18 00:26:31;;;;;;;19.15;10.88;;;;;;;;;;5089837;28;20874;-69
2022/05/18 00:28:57;;;;;;;21.67;11.75;;;;;;;;;;5072061;28;20300;-69
2022/05/18 00:31:23;;;;;;;20.95;12.07;;;;;;;;;;5099859;28;20188;-67
2022/05/18 00:33:49;;;;;;;19.67;12.38;;;;;;;;;;5091095;28;20190;-68
2022/05/18 00:36:15;;;;;;;19.38;12.45;;;;;;;;;;5092430;28;20754;-68
2022/05/18 00:38:41;;;;;;;24.63;13.73;;;;;;;;;;5088384;28;20296;-67
2022/05/18 00:41:07;;;;;;;22.35;12.85;;;;;;;;;;5096167;28;20605;-68
2022/05/18 00:43:33;;;;;;;21.75;12.88;;;;;;;;;;5089652;28;20201;-68
2022/05/18 00:46:01;;;;;;;21.60;12.57;;;;;;;;;;5091723;28;20189;-68
2022/05/18 00:48:27;;;;;;;21.05;12.52;;;;;;;;;;5077980;28;20589;-68
2022/05/18 00:50:54;;;;;;;20.33;12.93;;;;;;;;;;5097590;28;20668;-67
2022/05/18 00:53:22;;;;;;;19.95;13.52;;;;;;;;;;5099975;28;20190;-69
2022/05/18 00:55:50;;;;;;;20.13;13.82;;;;;;;;;;5091004;28;20182;-69
2022/05/18 00:58:22;;;;;;;26.33;14.07;;;;;;;;;;5081035;28;20641;-68
2022/05/18 01:00:50;;;;;;;21.90;14.48;;;;;;;;;;5100312;28;20200;-68
2022/05/18 01:03:29;;;;;;;23.20;14.30;;;;;;;;;;5103959;28;20609;-68
2022/05/18 01:05:58;;;;;;;20.40;14.73;;;;;;;;;;5096233;28;20182;-69
2022/05/18 01:08:30;;;;;;;23.20;15.43;;;;;;;;;;5095935;28;20182;-68
2022/05/18 01:10:56;;;;;;;26.50;15.63;;;;;;;;;;5099746;28;20188;-69
2022/05/18 01:13:22;;;;;;;21.95;15.32;;;;;;;;;;5099529;28;20182;-68
2022/05/18 01:15:48;;;;;;;27.02;15.30;;;;;;;;;;5091274;28;20185;-68
2022/05/18 01:18:14;;;;;;;24.80;15.77;;;;;;;;;;5106533;28;20264;-68
2022/05/18 01:20:42;;;;;;;27.00;16.33;;;;;;;;;;5096525;28;20874;-68
2022/05/18 01:23:15;;;;;;;22.67;16.45;;;;;;;;;;5105179;28;20189;-68
2022/05/18 01:25:57;;;;;;;27.42;17.17;;;;;;;;;;5088818;28;20222;-69
2022/05/18 01:28:24;;;;;;;26.15;17.85;;;;;;;;;;5099760;28;20199;-69
2022/05/18 01:30:51;;;;;;;28.83;18.23;;;;;;;;;;5092815;28;20190;-69
2022/05/18 01:33:18;;;;;;;27.92;18.05;;;;;;;;;;5105846;28;20181;-70
2022/05/18 01:35:45;;;;;;;27.42;17.70;;;;;;;;;;5091380;28;20533;-69
2022/05/18 01:38:12;;;;;;;26.23;18.42;;;;;;;;;;5100164;28;20188;-69
2022/05/18 01:40:41;;;;;;;31.05;18.50;;;;;;;;;;5062100;28;20181;-69
2022/05/18 01:43:26;;;;;;;26.40;19.30;;;;;;;;;;5098678;28;20180;-69
2022/05/18 01:45:53;;;;;;;27.95;19.73;;;;;;;;;;5101480;28;20726;-69
2022/05/18 01:48:21;;;;;;;26.20;19.58;;;;;;;;;;5106963;28;20181;-69
2022/05/18 01:50:47;;;;;;;27.33;19.60;;;;;;;;;;5093900;28;20275;-69
2022/05/18 01:53:14;;;;;;;32.78;20.45;;;;;;;;;;5101605;28;20178;-68
2022/05/18 01:55:40;;;;;;;28.65;19.92;;;;;;;;;;5082453;28;20185;-68
2022/05/18 01:58:06;;;;;;;29.55;20.75;;;;;;;;;;5078875;28;20610;-69
2022/05/18 02:00:32;;;;;;;28.42;20.13;;;;;;;;;;5087031;28;20196;-68
2022/05/18 02:02:58;;;;;;;30.85;20.85;;;;;;;;;;5096035;28;20185;-68
2022/05/18 02:05:25;;;;;;;30.80;20.05;;;;;;;;;;5079451;28;20285;-68
2022/05/18 02:07:51;;;;;;;30.52;20.85;;;;;;;;;;5100756;28;20186;-69
2022/05/18 02:10:17;;;;;;;31.90;19.58;;;;;;;;;;5101255;28;20239;-69
2022/05/18 02:12:43;;;;;;;33.15;20.67;;;;;;;;;;5083787;28;20190;-69
2022/05/18 02:15:09;;;;;;;31.08;18.52;;;;;;;;;;5069888;28;20194;-69
2022/05/18 02:17:37;;;;;;;28.45;18.42;;;;;;;;;;5083758;28;20264;-68
2022/05/18 02:20:03;;;;;;;28.58;19.33;;;;;;;;;;5095035;28;21043;-68
2022/05/18 02:22:29;;;;;;;36.05;19.13;;;;;;;;;;5080113;28;20185;-69
2022/05/18 02:24:56;;;;;;;27.25;18.65;;;;;;;;;;5095767;28;20221;-69
2022/05/18 02:27:22;;;;;;;28.25;19.42;;;;;;;;;;5101494;28;20181;-69
2022/05/18 02:29:48;;;;;;;30.45;18.98;;;;;;;;;;5090200;28;20174;-68
2022/05/18 02:32:14;;;;;;;26.42;17.95;;;;;;;;;;5107857;28;20168;-69
2022/05/18 02:34:40;;;;;;;27.98;18.67;;;;;;;;;;5078924;28;20547;-70
2022/05/18 02:37:06;;;;;;;29.90;19.13;;;;;;;;;;5098380;28;20185;-68
2022/05/18 02:39:32;;;;;;;31.40;19.33;;;;;;;;;;5090628;28;20181;-68
2022/05/18 02:41:58;;;;;;;30.52;20.17;;;;;;;;;;5097046;28;20186;-68
2022/05/18 02:44:24;;;;;;;33.47;21.80;;;;;;;;;;5090127;28;20198;-69
2022/05/18 02:46:50;;;;;;;30.30;21.02;;;;;;;;;;5091987;28;20182;-68
2022/05/18 02:49:16;;;;;;;29.02;22.17;;;;;;;;;;5101330;28;20202;-68
2022/05/18 02:51:42;;;;;;;29.77;21.80;;;;;;;;;;5103315;28;20186;-69
2022/05/18 02:56:54;;;;;;;35.28;23.02;;;;;;;;;;5095314;28;20189;-68
2022/05/18 02:59:21;;;;;;;36.10;23.20;;;;;;;;;;5089237;28;20185;-68
2022/05/18 03:01:47;;;;;;;30.73;23.50;;;;;;;;;;5091850;28;20258;-69
2022/05/18 03:04:13;;;;;;;32.22;24.00;;;;;;;;;;5077385;28;20201;-70
2022/05/18 03:06:39;;;;;;;30.92;23.20;;;;;;;;;;5100291;28;20178;-69
2022/05/18 03:09:06;;;;;;;35.30;24.75;;;;;;;;;;5094317;28;20179;-68
2022/05/18 03:11:32;;;;;;;31.55;24.40;;;;;;;;;;5102457;28;20181;-70
2022/05/18 03:13:58;;;;;;;39.90;24.23;;;;;;;;;;5070391;28;20201;-67
2022/05/18 03:16:25;;;;;;;39.15;24.70;;;;;;;;;;5083021;28;20185;-68
2022/05/18 03:18:51;;;;;;;38.45;24.83;;;;;;;;;;5079871;28;20208;-68
2022/05/18 03:24:02;;;;;;;35.92;25.02;;;;;;;;;;5086255;28;20563;-69
2022/05/18 03:26:28;;;;;;;33.10;25.02;;;;;;;;;;5097283;28;20697;-69
2022/05/18 03:28:55;;;;;;;36.17;23.98;;;;;;;;;;5073564;28;20181;-69
2022/05/18 03:31:21;;;;;;;34.60;24.70;;;;;;;;;;5099472;28;20288;-69
2022/05/18 03:33:48;;;;;;;33.55;25.35;;;;;;;;;;5092914;28;20199;-68
2022/05/18 03:36:15;;;;;;;37.58;25.52;;;;;;;;;;5081929;28;20185;-68
2022/05/18 03:38:42;;;;;;;36.38;25.25;;;;;;;;;;5093006;28;20188;-69
2022/05/18 03:41:08;;;;;;;35.70;25.65;;;;;;;;;;5098713;28;20262;-68
2022/05/18 03:43:35;;;;;;;39.08;25.85;;;;;;;;;;5089221;28;20214;-69
2022/05/18 03:46:02;;;;;;;35.15;25.48;;;;;;;;;;5090542;28;20265;-69
2022/05/18 03:48:29;;;;;;;34.88;25.13;;;;;;;;;;5070573;28;20242;-69
2022/05/18 03:50:57;;;;;;;35.15;24.92;;;;;;;;;;5101181;28;20169;-69
2022/05/18 03:53:23;;;;;;;33.40;25.48;;;;;;;;;;5076233;28;20210;-68
2022/05/18 03:55:49;;;;;;;36.58;24.98;;;;;;;;;;5091624;28;20188;-68
2022/05/18 03:58:16;;;;;;;36.88;26.30;;;;;;;;;;5093904;28;20265;-68
2022/05/18 04:00:43;;;;;;;34.60;25.55;;;;;;;;;;5066733;28;20189;-69
2022/05/18 04:03:10;;;;;;;42.92;25.77;;;;;;;;;;5069082;28;20546;-69
2022/05/18 04:05:40;;;;;;;36.30;24.95;;;;;;;;;;5083087;28;20208;-69
2022/05/18 04:08:07;;;;;;;37.22;25.70;;;;;;;;;;5087358;28;20267;-69
2022/05/18 04:10:34;;;;;;;40.05;27.27;;;;;;;;;;5090195;28;20223;-69
2022/05/18 04:13:00;;;;;;;38.95;26.33;;;;;;;;;;5067324;28;20186;-68
2022/05/18 04:15:27;;;;;;;38.42;26.83;;;;;;;;;;5089751;28;20276;-68
2022/05/18 04:17:53;;;;;;;43.60;28.83;;;;;;;;;;5089768;28;20214;-67
2022/05/18 04:20:21;;;;;;;43.15;29.00;;;;;;;;;;5077310;28;20197;-68
2022/05/18 04:22:47;;;;;;;40.42;29.30;;;;;;;;;;5091328;28;20185;-69
2022/05/18 04:25:15;;;;;;;44.22;28.40;;;;;;;;;;5095657;28;20257;-69
2022/05/18 04:27:42;;;;;;;41.17;28.88;;;;;;;;;;5093361;28;20637;-68
2022/05/18 04:30:08;;;;;;;45.13;28.70;;;;;;;;;;5091857;28;20190;-68
2022/05/18 04:32:34;;;;;;;41.95;28.95;;;;;;;;;;5095951;28;20618;-68
2022/05/18 04:35:00;;;;;;;41.60;29.65;;;;;;;;;;5091035;28;20658;-69
2022/05/18 04:37:26;;;;;;;44.38;30.00;;;;;;;;;;5085401;28;20182;-69
2022/05/18 04:39:52;;;;;;;41.47;28.33;;;;;;;;;;5085545;28;20190;-68
2022/05/18 04:42:22;;;;;;;47.05;29.60;;;;;;;;;;5070845;28;20194;-69
2022/05/18 04:44:49;;;;;;;40.75;28.70;;;;;;;;;;5099776;28;20224;-68
2022/05/18 04:47:15;;;;;;;39.20;29.50;;;;;;;;;;5090352;28;20695;-68
2022/05/18 04:49:41;;;;;;;43.28;28.10;;;;;;;;;;5086496;28;20210;-68
2022/05/18 04:52:07;;;;;;;39.13;27.58;;;;;;;;;;5090085;28;20181;-68
2022/05/18 04:54:35;;;;;;;42.28;27.92;;;;;;;;;;5088100;28;20191;-69
2022/05/18 04:57:01;;;;;;;39.63;27.85;;;;;;;;;;5091026;28;20199;-69
2022/05/18 04:59:27;;;;;;;41.58;28.75;;;;;;;;;;5094123;28;20196;-69
2022/05/18 05:01:54;;;;;;;40.13;29.25;;;;;;;;;;5083499;28;20185;-69
2022/05/18 05:04:20;;;;;;;38.97;27.52;;;;;;;;;;5081555;28;20209;-68
2022/05/18 05:06:46;;;;;;;40.83;27.15;;;;;;;;;;5098998;28;20600;-68
2022/05/18 05:09:13;;;;;;;40.45;27.77;;;;;;;;;;5086393;28;20550;-68
2022/05/18 05:11:39;;;;;;;36.90;26.52;;;;;;;;;;5073880;28;20596;-69
2022/05/18 05:14:05;;;;;;;46.03;26.55;;;;;;;;;;5094847;28;20192;-68
2022/05/18 05:16:32;;;;;;;42.25;25.73;;;;;;;;;;5088910;28;20185;-69
2022/05/18 05:18:58;;;;;;;38.67;26.30;;;;;;;;;;5100703;28;20189;-69
2022/05/18 05:21:24;;;;;;;38.15;26.20;;;;;;;;;;5089780;28;20579;-69
2022/05/18 05:23:50;;;;;;;42.75;26.77;;;;;;;;;;5083868;28;21050;-69
2022/05/18 05:26:17;;;;;;;41.47;27.77;;;;;;;;;;5085414;28;20182;-68
2022/05/18 05:28:43;;;;;;;41.40;25.77;;;;;;;;;;5070052;28;20197;-68
2022/05/18 05:31:11;;;;;;;40.22;26.50;;;;;;;;;;5086081;28;20238;-66
2022/05/18 05:33:38;;;;;;;37.63;27.13;;;;;;;;;;5086223;28;20271;-71
2022/05/18 05:36:05;;;;;;;37.10;28.23;;;;;;;;;;5088146;28;20186;-69
2022/05/18 05:38:31;;;;;;;39.35;26.40;;;;;;;;;;5073265;28;20657;-70
2022/05/18 05:41:00;;;;;;;36.00;25.90;;;;;;;;;;5090039;28;20296;-69
2022/05/18 05:43:26;;;;;;;37.63;25.27;;;;;;;;;;5087739;28;20186;-70
2022/05/18 05:45:57;;;;;;;44.17;25.15;;;;;;;;;;5076538;28;20235;-71
2022/05/18 05:48:24;;;;;;;36.67;25.27;;;;;;;;;;5082567;28;20262;-70
2022/05/18 05:50:50;;;;;;;37.05;24.08;;;;;;;;;;5088994;28;20190;-70
2022/05/18 05:53:16;;;;;;;32.47;23.50;;;;;;;;;;5088038;28;20182;-69
2022/05/18 05:55:42;;;;;;;38.25;23.20;;;;;;;;;;5087388;28;20549;-69
2022/05/18 05:58:08;;;;;;;38.50;22.38;;;;;;;;;;5094138;28;20197;-70
2022/05/18 06:00:34;;;;;;;34.92;20.45;;;;;;;;;;5088051;28;20713;-70
2022/05/18 06:03:01;;;;;;;27.20;19.10;;;;;;;;;;5070016;28;20656;-69
2022/05/18 06:05:28;;;;;;;31.25;17.40;;;;;;;;;;5103420;28;20582;-70
2022/05/18 06:07:54;;;;;;;26.33;16.33;;;;;;;;;;5089462;28;20189;-70
2022/05/18 06:10:21;;;;;;;27.75;15.13;;;;;;;;;;5083035;28;20654;-68
2022/05/18 06:12:47;;;;;;;23.58;15.70;;;;;;;;;;5069810;28;20193;-69
2022/05/18 06:15:13;;;;;;;27.80;15.27;;;;;;;;;;5084191;28;20181;-69
2022/05/18 06:17:40;;;;;;;23.55;15.35;;;;;;;;;;5088848;28;20190;-70
2022/05/18 06:20:07;;;;;;;23.45;14.68;;;;;;;;;;5087516;28;20193;-71
2022/05/18 06:22:33;;;;;;;28.60;16.23;;;;;;;;;;5093146;28;20186;-69
2022/05/18 06:24:59;;;;;;;30.63;15.88;;;;;;;;;;5095067;28;20222;-69
2022/05/18 06:27:25;;;;;;;32.92;15.73;;;;;;;;;;5094921;28;20186;-69
2022/05/18 06:29:51;;;;;;;27.85;15.07;;;;;;;;;;5091630;28;20193;-69
2022/05/18 06:32:18;;;;;;;25.35;15.52;;;;;;;;;;5091406;28;20263;-69
2022/05/18 06:34:48;;;;;;;26.08;15.40;;;;;;;;;;5089099;28;20217;-70
2022/05/18 06:37:14;;;;;;;29.98;15.10;;;;;;;;;;5067403;28;20274;-69
2022/05/18 06:39:40;;;;;;;24.27;14.55;;;;;;;;;;5083947;28;20185;-70
2022/05/18 06:42:07;;;;;;;24.25;13.85;;;;;;;;;;5089834;28;20686;-68
2022/05/18 06:44:38;;;;;;;26.75;14.80;;;;;;;;;;5072246;28;20220;-68
2022/05/18 06:47:05;;;;;;;28.63;17.55;;;;;;;;;;5085123;28;20246;-70
2022/05/18 06:49:31;;;;;;;27.02;15.95;;;;;;;;;;5088529;28;20186;-69
2022/05/18 06:51:58;;;;;;;38.85;17.85;;;;;;;;;;5071986;28;20193;-69
2022/05/18 06:54:24;;;;;;;35.50;17.52;;;;;;;;;;5091898;28;20182;-67
2022/05/18 06:56:50;;;;;;;30.17;18.55;;;;;;;;;;5075931;28;20200;-68
2022/05/18 06:59:16;;;;;;;31.23;18.35;;;;;;;;;;5101671;28;20182;-69
2022/05/18 07:01:43;;;;;;;31.65;19.75;;;;;;;;;;5087334;28;20650;-68
2022/05/18 07:04:13;;;;;;;32.80;19.48;;;;;;;;;;5096251;28;20213;-68
2022/05/18 07:06:40;;;;;;;35.55;20.30;;;;;;;;;;5086433;28;20241;-68
2022/05/18 07:09:08;;;;;;;36.30;20.45;;;;;;;;;;5068876;28;20265;-69
2022/05/18 07:11:37;;;;;;;36.03;20.50;;;;;;;;;;5087217;28;20213;-69
2022/05/18 07:14:05;;;;;;;37.72;20.70;;;;;;;;;;5089943;28;20265;-68
2022/05/18 07:16:31;;;;;;;36.08;20.38;;;;;;;;;;5086880;28;20216;-69
2022/05/18 07:18:58;;;;;;;36.00;20.60;;;;;;;;;;5087766;28;20189;-69
2022/05/18 07:21:25;;;;;;;35.70;22.10;;;;;;;;;;5083757;28;20186;-70
2022/05/18 07:23:51;;;;;;;38.00;22.00;;;;;;;;;;5089621;28;20282;-69
2022/05/18 07:26:18;;;;;;;32.83;20.20;;;;;;;;;;5066968;28;20193;-69
2022/05/18 07:28:44;;;;;;;34.97;20.80;;;;;;;;;;5092115;28;20664;-70
2022/05/18 07:31:11;;;;;;;37.85;21.40;;;;;;;;;;5070547;28;20186;-67
2022/05/18 07:33:37;;;;;;;38.65;20.90;;;;;;;;;;5068075;28;20177;-67
2022/05/18 07:36:04;;;;;;;37.53;21.23;;;;;;;;;;5087040;28;20192;-69
2022/05/18 07:38:31;;;;;;;39.08;21.20;;;;;;;;;;5070059;28;20186;-69
2022/05/18 07:40:57;;;;;;;33.28;20.48;;;;;;;;;;5088827;28;20544;-69
2022/05/18 07:43:23;;;;;;;36.35;21.23;;;;;;;;;;5088058;28;20205;-68
2022/05/18 07:45:50;;;;;;;35.63;20.30;;;;;;;;;;5086850;28;20220;-71
2022/05/18 07:48:17;;;;;;;37.00;21.00;;;;;;;;;;5085383;28;20190;-67
2022/05/18 07:50:43;;;;;;;35.60;20.73;;;;;;;;;;5086044;28;20181;-69
2022/05/18 07:53:10;;;;;;;38.53;19.90;;;;;;;;;;5089349;28;20545;-68
2022/05/18 07:55:36;;;;;;;42.38;21.60;;;;;;;;;;5067963;28;20514;-69
2022/05/18 07:58:06;;;;;;;39.40;20.83;;;;;;;;;;5070473;28;20629;-69
2022/05/18 08:00:33;;;;;;;38.25;22.55;;;;;;;;;;5085606;28;20177;-69
2022/05/18 08:02:59;;;;;;;37.72;20.85;;;;;;;;;;5073560;28;20185;-70
2022/05/18 08:05:25;;;;;;;35.00;21.38;;;;;;;;;;5083444;28;20216;-67
2022/05/18 08:07:51;;;;;;;41.72;20.92;;;;;;;;;;5089079;28;20234;-68
2022/05/18 08:15:53;;;;;;;36.33;21.50;;;;;;;;;;5087569;28;20190;-69
2022/05/18 08:18:20;;;;;;;37.50;20.98;;;;;;;;;;5072465;28;20621;-68
2022/05/18 08:20:47;;;;;;;42.95;21.92;;;;;;;;;;5096275;28;20302;-67
2022/05/18 08:23:13;;;;;;;45.75;21.55;;;;;;;;;;5086875;28;20763;-69
2022/05/18 08:25:39;;;;;;;42.05;21.55;;;;;;;;;;5086704;28;20596;-69
2022/05/18 08:28:08;;;;;;;34.35;21.38;;;;;;;;;;5077010;28;20198;-69
2022/05/18 08:30:34;;;;;;;36.17;20.02;;;;;;;;;;5078509;28;20600;-68
2022/05/18 08:33:00;;;;;;;38.97;21.13;;;;;;;;;;5102922;28;20226;-69
2022/05/18 08:35:27;;;;;;;33.15;20.42;;;;;;;;;;5077092;28;20205;-68
2022/05/18 08:37:54;;;;;;;33.80;20.05;;;;;;;;;;5070196;28;20186;-69
2022/05/18 08:40:20;;;;;;;31.63;18.70;;;;;;;;;;5075730;28;20193;-70
2022/05/18 08:42:46;;;;;;;34.67;18.77;;;;;;;;;;5089429;28;20190;-69
2022/05/18 08:45:12;;;;;;;37.58;19.35;;;;;;;;;;5085619;28;20736;-69
2022/05/18 08:47:42;;;;;;;32.08;18.50;;;;;;;;;;5086716;28;20213;-70
2022/05/18 08:50:11;;;;;;;36.53;18.15;;;;;;;;;;5084623;28;20270;-69
2022/05/18 08:52:58;;;;;;;26.58;15.30;;;;;;;;;;5070181;28;20186;-68
2022/05/18 08:55:42;;;;;;;26.50;14.73;;;;;;;;;;5086138;28;20201;-68
2022/05/18 08:58:34;;;;;;;26.27;14.90;;;;;;;;;;5087663;28;20185;-69
2022/05/18 09:01:07;;;;;;;26.10;14.15;;;;;;;;;;5084113;28;20200;-69
2022/05/18 09:03:36;;;;;;;24.42;12.80;;;;;;;;;;5069704;28;20305;-69
2022/05/18 09:06:08;;;;;;;20.98;12.05;;;;;;;;;;5085921;28;20641;-69
2022/05/18 09:08:34;;;;;;;22.55;12.32;;;;;;;;;;5101920;28;20181;-70
2022/05/18 09:11:02;;;;;;;23.65;12.52;;;;;;;;;;5092423;28;20262;-70
2022/05/18 09:13:29;;;;;;;20.25;10.68;;;;;;;;;;5071071;28;20273;-69
2022/05/18 09:15:55;;;;;;;20.63;10.85;;;;;;;;;;5072262;28;20289;-69
2022/05/18 09:18:40;;;;;;;19.05;10.95;;;;;;;;;;5074711;28;20189;-70
2022/05/18 09:21:18;;;;;;;18.00;9.77;;;;;;;;;;5092807;28;20285;-70
2022/05/18 09:23:55;;;;;;;17.15;9.27;;;;;;;;;;5088635;28;20248;-68
2022/05/18 09:26:31;;;;;;;15.40;8.38;;;;;;;;;;5089944;28;20213;-71
2022/05/18 09:29:03;;;;;;;12.52;8.05;;;;;;;;;;5088865;28;20195;-69
2022/05/18 09:31:42;;;;;;;13.00;7.28;;;;;;;;;;5090352;28;20192;-71
2022/05/18 09:34:14;;;;;;;14.32;7.93;;;;;;;;;;5092656;28;20590;-68
2022/05/18 09:36:44;;;;;;;14.38;7.75;;;;;;;;;;5070778;28;20281;-68
2022/05/18 09:39:17;;;;;;;17.30;7.90;;;;;;;;;;5072620;28;20201;-69
2022/05/18 09:41:51;;;;;;;17.33;8.02;;;;;;;;;;5056857;28;20193;-71
2022/05/18 09:44:23;;;;;;;12.60;8.32;;;;;;;;;;5088244;28;20600;-70
2022/05/18 09:46:49;;;;;;;16.40;8.85;;;;;;;;;;5090763;28;20242;-69
2022/05/18 09:49:34;;;;;;;19.63;9.50;;;;;;;;;;5089053;28;20189;-68
2022/05/18 09:52:02;;;;;;;16.85;8.85;;;;;;;;;;5091724;28;20181;-68
2022/05/18 09:54:30;;;;;;;19.52;9.07;;;;;;;;;;5088862;28;20196;-68
2022/05/18 09:57:09;;;;;;;16.45;8.65;;;;;;;;;;5070996;28;20630;-68
2022/05/18 09:59:38;;;;;;;16.08;8.40;;;;;;;;;;5082430;28;20186;-69
2022/05/18 10:07:50;;;;;;;14.70;7.22;;;;;;;;;;5087864;28;20213;-69
2022/05/18 10:10:19;;;;;;;11.48;6.47;;;;;;;;;;5083829;28;20185;-70
2022/05/18 10:13:00;;;;;;;11.90;7.18;;;;;;;;;;5090965;28;20189;-68
2022/05/18 10:15:26;;;;;;;11.77;6.40;;;;;;;;;;5072321;28;20597;-70
2022/05/18 10:18:00;;;;;;;11.18;7.32;;;;;;;;;;5090192;28;20603;-69
2022/05/18 10:20:36;;;;;;;11.75;6.88;;;;;;;;;;5090395;28;20551;-70
2022/05/18 10:23:03;;;;;;;10.35;6.82;;;;;;;;;;5089048;28;20645;-69
2022/05/18 10:25:48;;;;;;;14.15;6.93;;;;;;;;;;5084913;28;20274;-69
2022/05/18 10:28:23;;;;;;;10.57;7.13;;;;;;;;;;5087702;28;21132;-69
2022/05/18 10:30:58;;;;;;;13.20;7.53;;;;;;;;;;5072550;28;20182;-70
2022/05/18 10:33:35;;;;;;;12.15;7.43;;;;;;;;;;5090292;28;20191;-69
2022/05/18 10:36:10;;;;;;;13.68;7.25;;;;;;;;;;5088186;28;20243;-70
2022/05/18 10:38:37;;;;;;;14.73;7.47;;;;;;;;;;5090933;28;20190;-69
2022/05/18 10:41:03;;;;;;;14.00;8.02;;;;;;;;;;5091086;28;20190;-68
2022/05/18 10:43:29;;;;;;;12.68;7.95;;;;;;;;;;5071021;28;20198;-70
2022/05/18 10:46:01;;;;;;;12.70;7.82;;;;;;;;;;5087293;28;20263;-68
2022/05/18 10:48:28;;;;;;;15.02;8.45;;;;;;;;;;5071273;28;20268;-69
2022/05/18 10:51:08;;;;;;;15.35;8.75;;;;;;;;;;5071575;28;20248;-69
2022/05/18 10:53:36;;;;;;;14.38;7.40;;;;;;;;;;5086388;28;20190;-68
2022/05/18 10:56:11;;;;;;;15.50;8.02;;;;;;;;;;5072480;28;20178;-70
2022/05/18 10:58:40;;;;;;;12.23;7.22;;;;;;;;;;5086920;28;20253;-70
2022/05/18 11:01:11;;;;;;;15.48;8.90;;;;;;;;;;5085789;28;20201;-69
2022/05/18 11:03:46;;;;;;;14.52;8.30;;;;;;;;;;5066737;28;20189;-69
2022/05/18 11:06:15;;;;;;;12.48;8.18;;;;;;;;;;5089270;28;20230;-68
2022/05/18 11:08:41;;;;;;;11.57;7.85;;;;;;;;;;5083680;28;20193;-68
2022/05/18 11:11:26;;;;;;;15.00;7.60;;;;;;;;;;5085431;28;20215;-70
2022/05/18 11:14:08;;;;;;;12.63;7.80;;;;;;;;;;5070284;28;20197;-68
2022/05/18 11:16:41;;;;;;;14.48;7.60;;;;;;;;;;5089578;28;20645;-70
2022/05/18 11:19:16;;;;;;;15.27;7.95;;;;;;;;;;5086668;28;20197;-69
2022/05/18 11:21:54;;;;;;;12.52;6.82;;;;;;;;;;5070285;28;20182;-70
2022/05/18 11:24:39;;;;;;;9.20;6.15;;;;;;;;;;5070793;28;20231;-70
2022/05/18 11:27:13;;;;;;;14.77;6.53;;;;;;;;;;5088052;28;20210;-69
2022/05/18 11:29:58;;;;;;;14.35;6.30;;;;;;;;;;5061947;28;20193;-70
2022/05/18 11:32:44;;;;;;;11.02;6.45;;;;;;;;;;5088606;28;20178;-67
2022/05/18 11:35:10;;;;;;;9.75;6.03;;;;;;;;;;5085510;28;20268;-69
2022/05/18 11:37:36;;;;;;;8.68;5.38;;;;;;;;;;5071451;28;20185;-69
2022/05/18 11:40:10;;;;;;;9.05;5.00;;;;;;;;;;5067764;28;20189;-69
2022/05/18 11:42:47;;;;;;;10.02;5.80;;;;;;;;;;5087063;28;20280;-68
2022/05/18 11:45:16;;;;;;;9.80;5.13;;;;;;;;;;5070380;28;20203;-68
2022/05/18 11:47:42;;;;;;;13.45;5.40;;;;;;;;;;5072794;28;20185;-70
2022/05/18 11:50:14;;;;;;;12.48;5.20;;;;;;;;;;5083416;28;20209;-68
2022/05/18 11:52:40;;;;;;;7.63;4.63;;;;;;;;;;5089305;28;20603;-67
2022/05/18 11:55:16;;;;;;;9.35;5.10;;;;;;;;;;5087075;28;20280;-69
2022/05/18 11:57:42;;;;;;;12.55;5.03;;;;;;;;;;5090182;28;20560;-68
2022/05/18 12:00:39;;;;;;;7.55;4.93;;;;;;;;;;5087852;28;20854;-70
2022/05/18 12:03:16;;;;;;;9.45;5.43;;;;;;;;;;5085195;28;20194;-69
2022/05/18 12:05:48;;;;;;;8.85;5.07;;;;;;;;;;5086871;28;20209;-68
2022/05/18 12:08:34;;;;;;;11.07;5.43;;;;;;;;;;5083162;28;20233;-67
2022/05/18 12:11:12;;;;;;;14.85;5.75;;;;;;;;;;5070390;28;20217;-67
2022/05/18 12:13:57;;;;;;;9.88;5.40;;;;;;;;;;5068705;28;20714;-67
2022/05/18 12:16:42;;;;;;;15.82;5.57;;;;;;;;;;5088386;28;20166;-67
2022/05/18 12:19:08;;;;;;;13.65;5.28;;;;;;;;;;5067182;28;20272;-67
2022/05/18 12:21:36;;;;;;;13.35;4.97;;;;;;;;;;5087699;28;20603;-66
2022/05/18 12:24:04;;;;;;;8.93;4.90;;;;;;;;;;5068909;28;20322;-67
2022/05/18 12:26:31;;;;;;;14.43;4.95;;;;;;;;;;5068828;28;20194;-67
2022/05/18 12:28:58;;;;;;;13.23;5.53;;;;;;;;;;5086054;28;20178;-70
2022/05/18 12:31:26;;;;;;;16.05;5.93;;;;;;;;;;5068454;28;20276;-68
2022/05/18 12:34:01;;;;;;;12.00;5.22;;;;;;;;;;5086937;28;20261;-66
2022/05/18 12:36:41;;;;;;;14.15;5.03;;;;;;;;;;5088916;28;20782;-67
2022/05/18 12:39:13;;;;;;;13.20;5.68;;;;;;;;;;5067527;28;20584;-68
2022/05/18 12:41:47;;;;;;;14.65;6.45;;;;;;;;;;5090569;28;20196;-68
2022/05/18 12:44:21;;;;;;;14.73;6.18;;;;;;;;;;5070711;28;20209;-68
2022/05/18 12:46:55;;;;;;;12.25;5.47;;;;;;;;;;5091035;28;20181;-70
2022/05/18 12:49:43;;;;;;;13.68;5.43;;;;;;;;;;5072788;28;20200;-69
2022/05/18 12:52:15;;;;;;;14.57;6.70;;;;;;;;;;5071735;28;20293;-69
2022/05/18 12:54:43;;;;;;;13.15;5.90;;;;;;;;;;5090443;28;20209;-67
2022/05/18 12:57:15;;;;;;;13.77;6.18;;;;;;;;;;5092937;28;20182;-67
2022/05/18 12:59:49;;;;;;;11.80;5.78;;;;;;;;;;5087053;28;20186;-67
2022/05/18 13:02:36;;;;;;;9.75;5.03;;;;;;;;;;5093203;28;20209;-68
2022/05/18 13:05:05;;;;;;;10.23;5.30;;;;;;;;;;5088555;28;20209;-68
2022/05/18 13:07:32;;;;;;;12.90;5.10;;;;;;;;;;5074906;28;20265;-68
2022/05/18 13:10:12;;;;;;;11.30;5.65;;;;;;;;;;5087169;28;20182;-68
2022/05/18 13:12:46;;;;;;;15.07;4.90;;;;;;;;;;5090768;28;20204;-68
2022/05/18 13:15:21;;;;;;;9.65;4.60;;;;;;;;;;5087184;28;20197;-67
2022/05/18 13:18:00;;;;;;;11.60;4.40;;;;;;;;;;5092477;28;20242;-67
2022/05/18 13:20:29;;;;;;;12.57;4.80;;;;;;;;;;5088006;28;20259;-69
2022/05/18 13:23:03;;;;;;;13.95;4.90;;;;;;;;;;5073194;28;20242;-67
2022/05/18 13:25:32;;;;;;;12.27;4.38;;;;;;;;;;5089588;28;20687;-67
2022/05/18 13:27:59;;;;;;;15.65;4.78;;;;;;;;;;5096148;28;20202;-67
2022/05/18 13:30:39;;;;;;;12.15;4.78;;;;;;;;;;5099807;28;20255;-69
2022/05/18 13:33:06;;;;;;;14.95;4.30;;;;;;;;;;5072759;28;20777;-68
2022/05/18 13:35:33;;;;;;;9.15;4.10;;;;;;;;;;5088534;28;20193;-68
2022/05/18 13:38:09;;;;;;;12.38;3.83;;;;;;;;;;5094154;28;20213;-67
2022/05/18 13:40:35;;;;;;;10.95;3.55;;;;;;;;;;5097741;28;20245;-69
2022/05/18 13:43:04;;;;;;;12.55;3.67;;;;;;;;;;5089955;28;20230;-68
2022/05/18 13:45:31;;;;;;;10.05;3.38;;;;;;;;;;5093220;28;20205;-67
2022/05/18 13:47:59;;;;;;;13.50;3.72;;;;;;;;;;5072049;28;20182;-68
2022/05/18 13:50:30;;;;;;;9.77;3.47;;;;;;;;;;5082199;28;20648;-68
2022/05/18 13:52:57;;;;;;;14.13;3.58;;;;;;;;;;5081117;28;20205;-68
2022/05/18 13:55:24;;;;;;;10.55;4.00;;;;;;;;;;5069425;28;20561;-67
2022/05/18 13:58:05;;;;;;;9.20;3.83;;;;;;;;;;5088524;28;20207;-69
2022/05/18 14:00:44;;;;;;;9.57;3.53;;;;;;;;;;5087107;28;20225;-69
2022/05/18 14:03:12;;;;;;;11.05;3.70;;;;;;;;;;5095805;28;21951;-68
2022/05/18 14:05:40;;;;;;;11.82;3.70;;;;;;;;;;5090168;28;20217;-68
2022/05/18 14:08:15;;;;;;;8.52;3.25;;;;;;;;;;5088548;28;20197;-67
2022/05/18 14:10:42;;;;;;;10.77;3.05;;;;;;;;;;5086670;28;20209;-66
2022/05/18 14:13:08;;;;;;;11.85;3.90;;;;;;;;;;5088123;28;20307;-69
2022/05/18 14:15:37;;;;;;;7.40;3.40;;;;;;;;;;5095456;28;20653;-67
2022/05/18 14:18:06;;;;;;;12.43;3.50;;;;;;;;;;5091394;28;20215;-68
2022/05/18 14:20:39;;;;;;;9.68;3.75;;;;;;;;;;5090936;28;20194;-69
2022/05/18 14:23:06;;;;;;;11.73;3.33;;;;;;;;;;5069624;28;20213;-68
2022/05/18 14:25:37;;;;;;;9.10;3.45;;;;;;;;;;5091488;28;20231;-66
2022/05/18 14:28:08;;;;;;;8.30;3.28;;;;;;;;;;5095802;28;20185;-66
2022/05/18 14:30:39;;;;;;;7.53;3.30;;;;;;;;;;5089210;28;20228;-70
2022/05/18 14:33:05;;;;;;;15.90;3.50;;;;;;;;;;5070706;28;20197;-68
2022/05/18 14:35:40;;;;;;;11.05;3.58;;;;;;;;;;5086956;28;20186;-69
2022/05/18 14:38:08;;;;;;;15.57;3.85;;;;;;;;;;5080773;28;20180;-69
2022/05/18 14:40:40;;;;;;;7.47;3.30;;;;;;;;;;5093021;28;20182;-68
2022/05/18 14:43:06;;;;;;;12.90;3.42;;;;;;;;;;5085019;28;20596;-67
2022/05/18 14:45:41;;;;;;;11.07;3.88;;;;;;;;;;5089477;28;20207;-67
2022/05/18 14:48:07;;;;;;;12.88;4.13;;;;;;;;;;5091073;28;20267;-69
2022/05/18 14:50:38;;;;;;;12.02;3.45;;;;;;;;;;5086175;28;20276;-69
2022/05/18 14:53:14;;;;;;;12.30;3.30;;;;;;;;;;5080934;28;20654;-68